Buffalo, New York
Current Conditions -  °F | °C
As of 11:54 AM on Monday 24 Nov 2014 (Local Time) from KBUF Reporting Station
Scattered Clouds Scattered Clouds  
Wind Chill: 64°   Ceiling: Unl
Heat Index: 64°   Visibility: 10mi
Dew Point: 50°   Wind: 17mph
Humidity: 60%   Direction: 200°SSW
Pressure: 29.25"   Gusts: 31mph
Location:  42.89°N, 78.88°W
Report Text: KBUF 241654Z 20015G27KT 10SM FEW035 SCT055 SCT070 18/10 A2925 RMK AO2 PK WND 19027/1630 SLP904 T01780100
Loading
Personal Weather Stations






























Interactive Weather Map New forecast layout! Learn more

10-Day Weather Forecast

Advertisements
Track Severe Weather on mobile